Time;durP1;ratioP1;P1;durP2;ratioP2;P2;SDS_P1;SDS_P2;PMS_P1;PMS_P2;Temp;Humidity;BMP_temperature;BMP_pressure;BME280_temperature;BME280_humidity;BME280_pressure;Samples;Min_cycle;Max_cycle;Signal;HPM_P1;HPM_P2
2021/10/28 00:13:29;;;;;;;17.60;13.17;;;9.30;99.90;;;;;;5077155;28;20460;-60
2021/10/28 00:15:58;;;;;;;15.80;13.30;;;9.30;99.90;;;;;;5076870;28;20550;-60
2021/10/28 00:18:39;;;;;;;15.80;12.80;;;9.30;99.90;;;;;;5077062;28;20473;-60
2021/10/28 00:21:10;;;;;;;17.40;12.77;;;9.40;99.90;;;;;;5077110;28;20544;-60
2021/10/28 00:23:45;;;;;;;16.77;12.80;;;9.40;99.90;;;;;;5076574;28;20465;-60
2021/10/28 00:26:14;;;;;;;19.73;13.00;;;9.30;99.90;;;;;;5076745;28;20512;-60
2021/10/28 00:28:41;;;;;;;17.60;14.60;;;9.30;99.90;;;;;;5076674;28;20499;-60
2021/10/28 00:31:09;;;;;;;16.50;12.97;;;9.40;99.90;;;;;;5077140;28;20871;-60
2021/10/28 00:33:36;;;;;;;16.20;14.07;;;9.30;99.90;;;;;;5081666;28;20542;-60
2021/10/28 00:36:09;;;;;;;17.50;13.13;;;9.40;99.90;;;;;;5070709;28;20493;-60
2021/10/28 00:41:19;;;;;;;19.67;13.80;;;9.40;99.90;;;;;;5080899;28;20509;-60
2021/10/28 00:43:49;;;;;;;20.33;15.13;;;9.40;99.90;;;;;;5083411;28;20935;-60
2021/10/28 00:46:17;;;;;;;16.30;13.57;;;9.30;99.90;;;;;;5083119;28;20496;-60
2021/10/28 00:48:48;;;;;;;26.40;16.30;;;9.30;99.90;;;;;;5083151;28;20468;-60
2021/10/28 00:51:15;;;;;;;19.87;15.93;;;9.30;99.90;;;;;;5082849;28;20461;-60
2021/10/28 00:53:43;;;;;;;19.47;15.03;;;9.30;99.90;;;;;;5083425;28;20461;-60
2021/10/28 00:56:11;;;;;;;18.23;15.03;;;9.30;99.90;;;;;;5083135;28;20554;-60
2021/10/28 00:58:39;;;;;;;20.70;16.63;;;9.40;99.90;;;;;;5083291;28;20465;-60
2021/10/28 01:01:07;;;;;;;29.23;17.43;;;9.30;99.90;;;;;;5078297;28;20500;-60
2021/10/28 01:03:39;;;;;;;21.67;14.87;;;9.40;99.90;;;;;;5082756;28;20530;-60
2021/10/28 01:06:08;;;;;;;24.47;17.40;;;9.40;99.90;;;;;;5082953;28;20531;-60
2021/10/28 01:08:37;;;;;;;21.37;16.50;;;9.50;99.90;;;;;;5083117;28;20467;-60
2021/10/28 01:11:05;;;;;;;23.90;18.20;;;9.40;99.90;;;;;;5083209;28;20461;-60
2021/10/28 01:13:31;;;;;;;22.43;16.33;;;9.40;99.90;;;;;;5082971;28;20472;-60
2021/10/28 01:16:00;;;;;;;19.23;16.10;;;9.40;99.90;;;;;;5082682;28;20489;-60
2021/10/28 01:18:28;;;;;;;25.00;17.37;;;9.40;99.90;;;;;;5082562;28;20785;-60
2021/10/28 01:20:57;;;;;;;23.93;16.50;;;9.40;99.90;;;;;;5082887;28;20463;-60
2021/10/28 01:23:27;;;;;;;29.70;18.03;;;9.40;99.90;;;;;;5083191;28;20461;-60
2021/10/28 01:25:56;;;;;;;21.70;17.80;;;9.40;99.90;;;;;;5082891;28;20556;-60
2021/10/28 01:28:25;;;;;;;24.23;17.50;;;9.30;99.90;;;;;;5082585;28;20519;-61
2021/10/28 01:30:55;;;;;;;23.13;16.87;;;9.30;99.90;;;;;;5082914;28;20491;-60
2021/10/28 01:33:23;;;;;;;23.17;18.70;;;9.30;99.90;;;;;;5082554;28;20461;-60
2021/10/28 01:35:53;;;;;;;22.20;17.77;;;9.30;99.90;;;;;;5079577;28;20523;-61
2021/10/28 01:38:21;;;;;;;26.47;18.20;;;9.30;99.90;;;;;;5082816;28;20807;-60
2021/10/28 01:40:55;;;;;;;21.03;16.70;;;9.30;99.90;;;;;;5082859;28;20487;-61
2021/10/28 01:43:23;;;;;;;23.10;18.00;;;9.30;99.90;;;;;;5082802;28;20461;-61
2021/10/28 01:45:50;;;;;;;21.83;17.67;;;9.20;99.90;;;;;;5078488;28;20544;-61
2021/10/28 01:48:18;;;;;;;23.07;16.70;;;9.20;99.90;;;;;;5079361;28;20926;-61
2021/10/28 01:50:45;;;;;;;22.03;17.23;;;9.20;99.90;;;;;;5079804;28;20766;-61
2021/10/28 01:53:16;;;;;;;26.03;19.77;;;9.20;99.90;;;;;;5079493;28;20474;-61
2021/10/28 01:55:45;;;;;;;29.40;22.07;;;9.00;99.90;;;;;;5079217;28;20465;-61
2021/10/28 01:58:21;;;;;;;25.60;19.90;;;9.10;99.90;;;;;;5079345;28;20461;-61
2021/10/28 02:00:49;;;;;;;31.40;24.53;;;9.10;99.90;;;;;;5073917;28;20561;-61
2021/10/28 02:03:22;;;;;;;32.20;20.30;;;9.10;99.90;;;;;;5072209;28;20432;-61
2021/10/28 02:05:49;;;;;;;23.13;18.13;;;9.10;99.90;;;;;;5078863;28;20496;-61
2021/10/28 02:08:16;;;;;;;19.60;16.03;;;9.10;99.90;;;;;;5078652;28;20488;-61
2021/10/28 02:10:46;;;;;;;23.57;17.57;;;9.10;99.90;;;;;;5079124;28;20753;-61
2021/10/28 02:13:16;;;;;;;24.10;17.03;;;9.10;99.90;;;;;;5079124;28;20496;-61
2021/10/28 02:15:44;;;;;;;26.53;16.97;;;9.10;99.90;;;;;;5078946;28;20465;-61
2021/10/28 02:18:12;;;;;;;21.30;16.60;;;9.00;99.90;;;;;;5078859;28;20501;-62
2021/10/28 02:20:43;;;;;;;24.30;18.27;;;9.10;99.90;;;;;;5079486;28;20439;-61
2021/10/28 02:23:10;;;;;;;22.50;16.20;;;9.10;99.90;;;;;;5079183;28;20461;-62
2021/10/28 02:25:38;;;;;;;24.17;18.57;;;9.10;99.90;;;;;;5078977;28;20469;-61
2021/10/28 02:28:06;;;;;;;23.70;18.07;;;9.20;99.90;;;;;;5078699;28;20535;-61
2021/10/28 02:30:34;;;;;;;26.00;19.93;;;9.20;99.90;;;;;;5078654;28;20472;-62
2021/10/28 02:33:01;;;;;;;24.07;19.13;;;9.10;99.90;;;;;;5078850;28;20465;-62
2021/10/28 02:35:29;;;;;;;22.83;18.20;;;9.10;99.90;;;;;;5071116;28;20482;-61
2021/10/28 02:37:56;;;;;;;23.23;17.23;;;9.10;99.90;;;;;;5075521;28;20952;-62
2021/10/28 02:40:28;;;;;;;23.93;17.77;;;9.10;99.90;;;;;;5078632;28;20496;-62
2021/10/28 02:42:55;;;;;;;22.10;17.37;;;9.10;99.90;;;;;;5078563;28;20465;-62
2021/10/28 02:45:24;;;;;;;24.27;18.10;;;9.10;99.90;;;;;;5078677;28;20498;-62
2021/10/28 02:47:52;;;;;;;20.10;17.00;;;9.10;99.90;;;;;;5077952;28;20942;-62
2021/10/28 02:50:21;;;;;;;25.20;20.27;;;9.10;99.90;;;;;;5078433;28;20888;-62
2021/10/28 02:52:48;;;;;;;22.17;18.10;;;9.10;99.90;;;;;;5078063;28;20469;-63
2021/10/28 02:55:15;;;;;;;24.10;18.17;;;9.10;99.90;;;;;;5078093;28;20843;-63
2021/10/28 02:57:43;;;;;;;25.03;19.47;;;9.10;99.90;;;;;;5077851;28;20493;-63
2021/10/28 03:00:12;;;;;;;25.50;18.60;;;9.10;99.90;;;;;;5077869;28;20440;-63
2021/10/28 03:02:41;;;;;;;24.67;17.97;;;9.10;99.90;;;;;;5077983;28;20504;-63
2021/10/28 03:05:10;;;;;;;26.77;18.57;;;9.10;99.90;;;;;;5077904;28;20489;-63
2021/10/28 03:07:37;;;;;;;28.80;20.57;;;9.10;99.90;;;;;;5078315;28;20519;-63
2021/10/28 03:10:07;;;;;;;26.67;20.33;;;9.10;99.90;;;;;;5077964;28;20465;-60
2021/10/28 03:12:36;;;;;;;29.87;21.43;;;9.10;99.90;;;;;;5078082;28;20460;-62
2021/10/28 03:15:05;;;;;;;32.87;22.23;;;9.10;99.90;;;;;;5078268;28;20466;-62
2021/10/28 03:17:39;;;;;;;28.83;21.60;;;9.10;99.90;;;;;;5077304;28;20591;-62
2021/10/28 03:25:39;;;;;;;31.47;21.50;;;9.20;99.90;;;;;;5061488;28;20498;-64
2021/10/28 03:28:13;;;;;;;26.67;21.20;;;9.20;99.90;;;;;;5077712;28;20454;-64
2021/10/28 03:30:40;;;;;;;26.30;18.83;;;9.10;99.90;;;;;;5077679;28;20458;-64
2021/10/28 03:33:09;;;;;;;30.50;20.20;;;9.10;99.90;;;;;;5077622;28;20457;-64
2021/10/28 03:35:38;;;;;;;29.13;19.57;;;9.10;99.90;;;;;;5075987;28;20469;-63
2021/10/28 03:38:10;;;;;;;27.67;20.07;;;9.10;99.90;;;;;;5076910;28;20547;-63
2021/10/28 03:41:28;;;;;;;26.43;20.50;;;9.10;99.90;;;;;;5077465;28;20762;-63
2021/10/28 03:58:36;;;;;;;25.87;19.90;;;9.10;99.90;;;;;;5071753;28;20458;-63
2021/10/28 04:04:18;;;;;;;25.63;19.80;;;9.10;99.90;;;;;;5074546;28;20469;-63
2021/10/28 04:07:06;;;;;;;27.70;20.27;;;9.00;99.90;;;;;;5076992;28;20485;-63
2021/10/28 04:21:15;;;;;;;30.43;22.10;;;9.40;99.90;;;;;;5014727;28;20443;-63
2021/10/28 04:29:13;;;;;;;29.83;22.00;;;9.40;99.90;;;;;;5076673;28;20492;-63
2021/10/28 04:31:40;;;;;;;33.03;21.97;;;9.40;99.90;;;;;;5076239;28;20506;-63
2021/10/28 04:34:12;;;;;;;30.07;22.33;;;9.50;99.90;;;;;;5076950;28;20466;-62
2021/10/28 04:36:40;;;;;;;31.40;23.03;;;9.50;99.90;;;;;;5068172;28;20478;-63
2021/10/28 04:39:11;;;;;;;31.40;22.57;;;9.40;99.90;;;;;;5076988;28;20469;-62
2021/10/28 04:41:40;;;;;;;29.53;21.43;;;9.50;99.90;;;;;;5077184;28;20854;-62
2021/10/28 04:44:10;;;;;;;28.20;22.10;;;9.50;99.90;;;;;;5076188;28;20461;-61
2021/10/28 04:46:37;;;;;;;31.10;22.23;;;9.50;99.90;;;;;;5077109;28;20564;-62
2021/10/28 04:49:05;;;;;;;31.00;21.43;;;9.50;99.90;;;;;;5076851;28;20465;-61
2021/10/28 04:51:32;;;;;;;29.70;22.00;;;9.50;99.90;;;;;;5076161;28;20461;-61
2021/10/28 04:53:59;;;;;;;31.70;22.30;;;9.40;99.90;;;;;;5076718;28;20465;-61
2021/10/28 04:56:26;;;;;;;33.70;22.03;;;9.40;99.90;;;;;;5076437;28;20489;-62
2021/10/28 04:58:55;;;;;;;32.97;22.17;;;9.40;99.90;;;;;;5076179;28;20465;-62
2021/10/28 05:01:23;;;;;;;27.17;21.17;;;9.40;99.90;;;;;;5066300;28;20466;-62
2021/10/28 05:03:50;;;;;;;25.43;20.17;;;9.40;99.90;;;;;;5071687;28;20888;-61
2021/10/28 05:06:18;;;;;;;30.77;20.93;;;9.40;99.90;;;;;;5076354;28;20464;-61
2021/10/28 05:08:45;;;;;;;26.47;19.93;;;9.30;99.90;;;;;;5076877;28;20769;-61
2021/10/28 05:11:16;;;;;;;30.43;20.23;;;9.30;99.90;;;;;;5077042;28;20461;-61
2021/10/28 05:13:43;;;;;;;32.80;23.43;;;9.30;99.90;;;;;;5076401;28;20432;-61
2021/10/28 05:16:11;;;;;;;26.43;19.93;;;9.30;99.90;;;;;;5061066;28;20529;-61
2021/10/28 05:18:42;;;;;;;26.53;20.40;;;9.30;99.90;;;;;;5056947;28;20965;-61
2021/10/28 05:21:10;;;;;;;30.93;22.80;;;9.30;99.90;;;;;;5060622;28;20753;-61
2021/10/28 05:23:39;;;;;;;28.17;20.87;;;9.40;99.90;;;;;;5060023;28;20819;-61
2021/10/28 05:26:09;;;;;;;28.77;21.67;;;9.40;99.90;;;;;;5060011;28;20465;-61
2021/10/28 05:28:36;;;;;;;33.37;22.80;;;9.30;99.90;;;;;;5060163;28;20516;-61
2021/10/28 05:31:06;;;;;;;29.20;21.73;;;9.30;99.90;;;;;;5060079;28;20494;-61
2021/10/28 05:33:35;;;;;;;30.20;21.27;;;9.30;99.90;;;;;;5060309;28;20465;-61
2021/10/28 05:36:02;;;;;;;30.57;23.20;;;9.40;99.90;;;;;;5059519;28;20470;-61
2021/10/28 05:38:32;;;;;;;28.00;21.10;;;9.30;99.90;;;;;;5075680;28;20467;-61
2021/10/28 05:40:59;;;;;;;32.40;21.87;;;9.30;99.90;;;;;;5080317;28;20460;-62
2021/10/28 05:43:26;;;;;;;26.33;20.10;;;9.30;99.90;;;;;;5079748;28;20748;-61
2021/10/28 05:45:56;;;;;;;28.97;21.80;;;9.30;99.90;;;;;;5079784;28;20468;-61
2021/10/28 05:48:23;;;;;;;29.63;21.60;;;9.20;99.90;;;;;;5079920;28;20468;-61
2021/10/28 05:51:05;;;;;;;29.80;22.00;;;9.20;99.90;;;;;;5077215;28;20644;-61
2021/10/28 05:53:34;;;;;;;26.60;20.07;;;9.30;99.90;;;;;;5069446;28;20468;-61
2021/10/28 05:56:04;;;;;;;29.97;21.27;;;9.30;99.90;;;;;;5066552;28;20458;-60
2021/10/28 05:58:34;;;;;;;29.97;22.17;;;9.30;99.90;;;;;;5071895;28;20558;-61
2021/10/28 06:01:02;;;;;;;28.37;20.87;;;9.20;99.90;;;;;;5068885;28;20482;-60
2021/10/28 06:03:30;;;;;;;31.73;23.13;;;9.20;99.90;;;;;;5068233;28;20432;-61
2021/10/28 06:05:59;;;;;;;31.17;21.50;;;9.30;99.90;;;;;;5067576;28;20495;-61
2021/10/28 06:08:26;;;;;;;29.30;21.50;;;9.30;99.90;;;;;;5069929;28;20458;-61
2021/10/28 06:10:56;;;;;;;33.43;22.27;;;9.30;99.90;;;;;;5061460;28;20596;-61
2021/10/28 06:13:50;;;;;;;31.63;22.33;;;9.30;99.90;;;;;;5077781;28;20791;-61
2021/10/28 06:16:17;;;;;;;32.63;20.80;;;9.40;99.90;;;;;;5059994;28;20462;-61
2021/10/28 06:18:50;;;;;;;30.10;23.00;;;9.30;99.90;;;;;;5068640;28;20493;-61
2021/10/28 06:21:25;;;;;;;30.80;23.30;;;9.30;99.90;;;;;;5067877;28;20458;-61
2021/10/28 06:23:52;;;;;;;32.10;24.07;;;9.20;99.90;;;;;;5067385;28;20531;-61
2021/10/28 06:26:22;;;;;;;26.80;21.07;;;9.20;99.90;;;;;;5067381;28;20432;-61
2021/10/28 06:28:49;;;;;;;26.83;20.27;;;9.30;99.90;;;;;;5067040;28;20468;-61
2021/10/28 06:31:19;;;;;;;35.23;24.10;;;9.30;99.90;;;;;;5065385;28;20458;-61
2021/10/28 06:33:52;;;;;;;52.93;35.90;;;9.30;99.90;;;;;;5069589;28;20461;-61
2021/10/28 06:36:24;;;;;;;49.17;32.90;;;9.30;99.90;;;;;;5069253;28;20847;-61
2021/10/28 06:38:54;;;;;;;47.93;33.33;;;9.30;99.90;;;;;;5071051;28;20494;-61
2021/10/28 06:41:21;;;;;;;27.17;21.17;;;9.30;99.90;;;;;;5072301;28;20443;-61
2021/10/28 06:43:51;;;;;;;56.20;37.37;;;9.40;99.90;;;;;;5077693;28;20493;-61
2021/10/28 06:46:18;;;;;;;30.47;24.77;;;9.40;99.90;;;;;;5077987;28;20493;-61
2021/10/28 06:48:47;;;;;;;30.93;24.83;;;9.40;99.90;;;;;;5078287;28;20464;-61
2021/10/28 06:51:23;;;;;;;30.53;22.13;;;9.50;99.90;;;;;;5078196;28;20523;-61
2021/10/28 06:54:00;;;;;;;36.23;29.00;;;9.50;99.90;;;;;;5078020;28;20469;-61
2021/10/28 07:02:19;;;;;;;25.10;18.67;;;9.60;99.90;;;;;;5073577;28;20788;-61
2021/10/28 07:04:47;;;;;;;23.73;18.70;;;9.70;99.90;;;;;;5078421;28;20864;-62
2021/10/28 07:07:16;;;;;;;23.40;18.67;;;9.70;99.90;;;;;;5078304;28;20801;-62
2021/10/28 07:09:49;;;;;;;23.53;18.67;;;9.70;99.90;;;;;;5077428;28;20457;-63
2021/10/28 07:12:25;;;;;;;28.93;20.43;;;9.80;99.90;;;;;;5077688;28;20485;-62
2021/10/28 07:14:59;;;;;;;28.77;18.57;;;9.80;99.90;;;;;;5077939;28;20461;-62
2021/10/28 07:17:34;;;;;;;20.00;15.50;;;9.90;99.90;;;;;;5077952;28;20489;-63
2021/10/28 07:20:18;;;;;;;20.87;16.60;;;9.90;99.90;;;;;;5077712;28;20524;-62
2021/10/28 07:23:01;;;;;;;18.30;15.47;;;10.00;99.90;;;;;;5078230;28;20466;-62
2021/10/28 07:28:27;;;;;;;18.37;13.20;;;10.10;1.00;;;;;;5051261;28;20419;-62
2021/10/28 07:33:52;;;;;;;20.40;14.53;;;10.40;99.90;;;;;;5077296;28;20737;-63
2021/10/28 07:39:38;;;;;;;20.00;13.93;;;10.60;99.90;;;;;;5076783;28;20469;-63
2021/10/28 07:59:14;;;;;;;16.97;13.90;;;12.20;56.00;;;;;;5057265;28;20473;-61
2021/10/28 08:21:27;;;;;;;16.40;14.20;;;13.40;1.00;;;;;;5073857;28;20437;-60
2021/10/28 08:24:04;;;;;;;17.73;13.23;;;13.50;1.00;;;;;;5076977;28;20467;-59
2021/10/28 08:29:30;;;;;;;14.27;12.70;;;13.50;1.00;;;;;;5076920;28;20878;-59
2021/10/28 08:32:09;;;;;;;16.30;14.60;;;13.60;1.00;;;;;;5076650;28;20468;-58
2021/10/28 08:34:38;;;;;;;13.87;12.37;;;13.70;1.00;;;;;;5076442;28;20465;-59
2021/10/28 08:37:11;;;;;;;14.60;13.03;;;13.70;1.00;;;;;;5072523;28;20756;-59
2021/10/28 08:39:43;;;;;;;17.10;13.97;;;13.60;1.00;;;;;;5076246;28;20947;-56
2021/10/28 08:42:23;;;;;;;14.93;11.77;;;13.60;1.00;;;;;;5076637;28;20461;-58
2021/10/28 08:44:52;;;;;;;17.13;13.00;;;13.80;1.00;;;;;;5077181;28;20560;-59
2021/10/28 08:47:22;;;;;;;13.27;11.37;;;13.90;1.00;;;;;;5076877;28;20501;-56
2021/10/28 08:50:00;;;;;;;13.97;11.73;;;14.10;1.00;;;;;;5076479;28;20469;-55
2021/10/28 08:52:49;;;;;;;15.10;13.23;;;14.30;1.00;;;;;;5063036;28;20462;-57
2021/10/28 08:55:31;;;;;;;14.80;11.43;;;14.50;1.00;;;;;;5070736;28;20462;-54
2021/10/28 09:24:05;;;;;;;13.07;11.13;;;15.70;1.00;;;;;;5079935;28;20467;-56
2021/10/28 09:26:43;;;;;;;11.90;10.67;;;16.00;1.00;;;;;;5079820;28;20501;-55
2021/10/28 09:29:24;;;;;;;11.70;9.50;;;16.40;1.00;;;;;;5081054;28;20902;-54
2021/10/28 09:32:05;;;;;;;12.73;10.63;;;16.20;1.00;;;;;;5079385;28;20465;-58
2021/10/28 09:46:32;;;;;;;10.80;9.27;;;16.60;1.00;;;;;;5060575;28;20424;-58
2021/10/28 09:51:56;;;;;;;10.10;9.10;;;16.70;1.00;;;;;;5078661;28;20448;-50
2021/10/28 09:54:41;;;;;;;9.27;8.33;;;17.00;1.00;;;;;;5069336;28;20549;-52
2021/10/28 09:57:49;;;;;;;12.03;9.07;;;17.20;1.00;;;;;;5063447;28;20523;-56
2021/10/28 10:00:18;;;;;;;10.03;8.90;;;17.20;1.00;;;;;;5077167;28;20938;-51
2021/10/28 10:03:04;;;;;;;10.80;8.60;;;17.20;1.00;;;;;;5068703;28;20820;-53
2021/10/28 10:05:37;;;;;;;10.37;8.23;;;17.40;1.00;;;;;;5058855;28;20521;-50
2021/10/28 10:08:07;;;;;;;10.90;8.30;;;17.70;1.00;;;;;;5068128;28;20523;-54
2021/10/28 10:10:41;;;;;;;9.17;8.07;;;17.70;1.00;;;;;;5079436;28;20461;-54
2021/10/28 10:13:12;;;;;;;11.23;9.10;;;17.60;1.00;;;;;;5078696;28;20880;-53
2021/10/28 10:15:41;;;;;;;9.30;8.40;;;17.80;1.00;;;;;;5073711;28;20949;-51
2021/10/28 10:18:08;;;;;;;8.77;7.90;;;17.80;1.00;;;;;;5066518;28;20563;-51
2021/10/28 10:20:45;;;;;;;8.10;7.30;;;18.10;1.00;;;;;;5074529;28;20757;-55
2021/10/28 10:26:33;;;;;;;10.57;7.87;;;17.50;1.00;;;;;;5020397;28;20410;-51
2021/10/28 12:25:03;;;;;;;9.57;8.63;;;20.00;99.90;;;;;;5068696;28;20438;-50
2021/10/28 12:44:53;;;;;;;9.27;8.33;;;20.00;99.90;;;;;;5076369;28;20452;-51
2021/10/28 12:53:31;;;;;;;9.47;8.60;;;19.40;99.90;;;;;;5076373;28;20430;-49
2021/10/28 12:56:22;;;;;;;9.00;8.10;;;19.40;99.90;;;;;;5075874;28;20552;-51
2021/10/28 13:05:07;;;;;;;8.00;7.30;;;19.20;99.90;;;;;;5091192;27;20625;-49
2021/10/28 13:48:01;;;;;;;8.10;7.30;;;18.20;99.90;;;;;;5063146;28;20445;-49
2021/10/28 13:55:38;;;;;;;9.00;8.03;;;16.80;99.90;;;;;;5068584;28;20491;-46
2021/10/28 13:58:40;;;;;;;11.17;8.00;;;16.70;99.90;;;;;;5062615;28;20455;-48
2021/10/28 14:16:03;;;;;;;10.20;9.13;;;16.10;99.90;;;;;;5043055;28;20797;-51
2021/10/28 14:21:44;;;;;;;8.97;8.03;;;15.90;99.90;;;;;;5054766;28;20892;-54
2021/10/28 14:38:25;;;;;;;9.80;8.90;;;15.70;1.00;;;;;;5054328;28;20437;-52
2021/10/28 15:29:00;;;;;;;14.80;12.50;;;14.30;1.00;;;;;;5057961;28;20438;-50
2021/10/28 15:34:33;;;;;;;15.80;12.87;;;14.20;1.00;;;;;;5057412;28;20433;-44
2021/10/28 15:37:08;;;;;;;14.73;13.13;;;14.10;1.00;;;;;;5038233;28;20466;-48
2021/10/28 15:39:40;;;;;;;14.90;12.67;;;14.00;1.00;;;;;;5038063;28;20967;-48
2021/10/28 15:42:38;;;;;;;17.97;14.47;;;14.00;1.00;;;;;;5043617;28;20537;-49
2021/10/28 15:54:03;;;;;;;16.13;14.53;;;13.40;1.00;;;;;;5057527;28;20430;-48
2021/10/28 15:56:51;;;;;;;16.30;14.60;;;13.30;1.00;;;;;;5057190;28;20462;-45
2021/10/28 16:22:12;;;;;;;20.80;16.77;;;12.40;1.00;;;;;;5037147;28;20434;-49
2021/10/28 16:24:39;;;;;;;21.90;18.17;;;12.40;1.00;;;;;;5037484;28;20491;-52
2021/10/28 16:27:11;;;;;;;17.77;15.87;;;12.40;1.00;;;;;;5037590;28;20437;-51
2021/10/28 16:29:41;;;;;;;20.33;17.50;;;12.40;1.00;;;;;;5037176;28;20467;-47
2021/10/28 16:32:11;;;;;;;20.37;18.17;;;12.30;1.00;;;;;;5039048;28;20545;-47
2021/10/28 16:34:41;;;;;;;22.53;19.27;;;12.20;1.00;;;;;;5044777;28;20538;-50
2021/10/28 16:37:13;;;;;;;20.97;18.57;;;12.20;1.00;;;;;;5053810;28;20469;-46
2021/10/28 16:39:49;;;;;;;22.37;19.83;;;12.10;1.00;;;;;;5057127;28;20466;-48
2021/10/28 16:42:17;;;;;;;21.07;18.40;;;12.00;1.00;;;;;;5057205;28;20457;-50
2021/10/28 16:44:45;;;;;;;24.67;21.70;;;11.90;1.00;;;;;;5057110;28;20494;-51
2021/10/28 16:47:15;;;;;;;27.43;20.40;;;11.90;1.00;;;;;;5057188;28;20474;-46
2021/10/28 16:49:45;;;;;;;24.93;20.10;;;11.70;1.00;;;;;;5056662;28;20466;-50
2021/10/28 16:52:14;;;;;;;25.50;20.80;;;11.70;1.00;;;;;;5056866;28;20462;-46
2021/10/28 16:54:43;;;;;;;25.20;20.30;;;11.60;1.00;;;;;;5056863;28;20568;-45
2021/10/28 16:57:11;;;;;;;23.77;20.70;;;11.50;1.00;;;;;;5057324;28;20470;-49
2021/10/28 16:59:41;;;;;;;28.27;21.27;;;11.50;1.00;;;;;;5057021;28;20461;-46
2021/10/28 17:02:13;;;;;;;25.80;21.93;;;11.40;10.00;;;;;;5072969;28;20507;-44
2021/10/28 17:04:45;;;;;;;26.90;21.60;;;11.40;11.80;;;;;;5050123;28;20769;-44
2021/10/28 17:07:18;;;;;;;30.07;23.00;;;11.30;28.30;;;;;;5043769;28;20533;-47
2021/10/28 17:09:49;;;;;;;26.03;21.70;;;11.30;38.80;;;;;;5046516;28;20749;-47
2021/10/28 17:12:22;;;;;;;26.33;21.83;;;11.20;53.80;;;;;;5044346;28;20517;-45
2021/10/28 17:14:52;;;;;;;25.20;19.77;;;11.20;64.50;;;;;;5046811;28;20446;-45
2021/10/28 17:17:19;;;;;;;26.10;20.73;;;11.10;99.20;;;;;;5045020;28;20504;-44
2021/10/28 17:19:48;;;;;;;28.23;21.80;;;11.00;99.90;;;;;;5045254;28;20450;-52
2021/10/28 17:22:16;;;;;;;29.30;22.00;;;11.00;99.90;;;;;;5044942;28;20470;-48
2021/10/28 17:24:48;;;;;;;31.67;22.63;;;11.00;99.90;;;;;;5043472;28;20494;-46
2021/10/28 17:27:15;;;;;;;26.10;22.10;;;11.00;99.90;;;;;;5045138;28;20549;-45
2021/10/28 17:29:46;;;;;;;29.97;22.97;;;10.90;99.90;;;;;;5049605;28;21054;-45
2021/10/28 17:32:21;;;;;;;27.00;20.23;;;10.80;99.90;;;;;;5046214;28;21128;-44
2021/10/28 17:34:48;;;;;;;33.53;24.80;;;10.80;99.90;;;;;;5045278;28;20871;-50
2021/10/28 17:37:18;;;;;;;31.40;24.70;;;10.70;99.90;;;;;;5045463;28;20794;-48
2021/10/28 17:39:52;;;;;;;35.73;25.80;;;10.70;99.90;;;;;;5043370;28;20457;-46
2021/10/28 17:42:20;;;;;;;29.07;22.47;;;10.60;1.00;;;;;;5045188;28;20493;-49
2021/10/28 17:44:53;;;;;;;37.30;24.70;;;10.50;1.00;;;;;;5040940;28;20501;-49
2021/10/28 17:47:24;;;;;;;31.00;24.33;;;10.50;56.70;;;;;;5048104;28;20458;-51
2021/10/28 17:49:52;;;;;;;40.10;25.37;;;10.50;99.90;;;;;;5046673;28;20458;-48
2021/10/28 17:52:22;;;;;;;31.77;24.07;;;10.40;99.90;;;;;;5049376;28;20494;-46
2021/10/28 17:54:51;;;;;;;34.30;25.80;;;10.30;99.90;;;;;;5050074;28;20456;-47
2021/10/28 17:57:24;;;;;;;32.40;25.13;;;10.30;99.90;;;;;;5048401;28;20479;-50
2021/10/28 17:59:53;;;;;;;32.23;25.83;;;10.30;99.90;;;;;;5054756;28;20458;-47
2021/10/28 18:02:20;;;;;;;32.13;24.67;;;10.30;99.90;;;;;;5057693;28;20473;-45
2021/10/28 18:04:55;;;;;;;31.63;25.93;;;10.20;1.00;;;;;;5059454;28;20516;-54
2021/10/28 18:07:22;;;;;;;33.87;27.10;;;10.10;1.00;;;;;;5059536;28;20733;-53
2021/10/28 18:09:52;;;;;;;35.70;28.00;;;10.10;39.90;;;;;;5059317;28;20462;-51
2021/10/28 18:12:24;;;;;;;32.43;27.70;;;10.10;99.90;;;;;;5058749;28;20520;-54
2021/10/28 18:14:58;;;;;;;33.73;25.77;;;10.00;99.90;;;;;;5039893;28;20459;-48
2021/10/28 18:17:32;;;;;;;34.53;26.57;;;9.90;1.00;;;;;;5039688;28;20809;-45
2021/10/28 18:20:07;;;;;;;38.30;28.67;;;9.90;59.30;;;;;;5039782;28;20912;-48
2021/10/28 18:22:37;;;;;;;35.90;26.87;;;9.80;99.90;;;;;;5039503;28;20458;-47
2021/10/28 18:25:12;;;;;;;35.13;28.23;;;9.80;1.00;;;;;;5039871;28;20491;-47
2021/10/28 18:27:43;;;;;;;35.67;27.53;;;9.80;1.00;;;;;;5039376;28;20466;-48
2021/10/28 18:30:13;;;;;;;33.73;27.63;;;9.80;1.00;;;;;;5041901;28;20948;-45
2021/10/28 18:32:41;;;;;;;37.63;27.77;;;9.70;1.00;;;;;;5039521;28;20463;-45
2021/10/28 18:35:13;;;;;;;40.17;30.10;;;9.70;99.90;;;;;;5053068;28;20536;-45
2021/10/28 18:37:44;;;;;;;38.77;30.37;;;9.60;99.90;;;;;;5059742;28;20912;-45
2021/10/28 18:40:20;;;;;;;33.10;26.13;;;9.60;1.00;;;;;;5059702;28;20951;-45
2021/10/28 18:42:53;;;;;;;38.10;29.40;;;9.50;99.90;;;;;;5059360;28;20458;-45
2021/10/28 18:45:20;;;;;;;41.40;29.87;;;9.50;99.90;;;;;;5055908;28;20494;-45
2021/10/28 18:47:51;;;;;;;35.73;28.30;;;9.50;99.90;;;;;;5047695;28;20455;-46
2021/10/28 18:50:28;;;;;;;38.53;27.13;;;9.40;1.00;;;;;;5048823;28;20486;-48
2021/10/28 18:53:01;;;;;;;40.77;30.83;;;9.40;99.90;;;;;;5049114;28;20456;-50
2021/10/28 18:55:39;;;;;;;40.23;29.57;;;9.40;1.00;;;;;;5047787;28;20436;-50
2021/10/28 18:58:07;;;;;;;40.20;28.80;;;9.40;1.00;;;;;;5048551;28;20545;-46
2021/10/28 19:00:34;;;;;;;41.70;28.90;;;9.30;1.00;;;;;;5055402;28;20752;-47
2021/10/28 19:03:10;;;;;;;36.20;26.87;;;9.30;75.00;;;;;;5078297;28;20576;-46
2021/10/28 19:05:40;;;;;;;36.77;27.60;;;9.30;99.90;;;;;;5078260;28;20492;-46
2021/10/28 19:08:09;;;;;;;41.93;28.83;;;9.20;99.90;;;;;;5078465;28;20761;-48
2021/10/28 19:10:37;;;;;;;41.60;29.00;;;9.20;88.00;;;;;;5078924;28;20489;-45
2021/10/28 19:13:06;;;;;;;37.70;29.07;;;9.10;99.90;;;;;;5078145;28;20867;-49
2021/10/28 19:15:36;;;;;;;41.20;28.87;;;9.10;99.90;;;;;;5078474;28;20532;-53
2021/10/28 19:18:12;;;;;;;38.70;27.80;;;9.10;99.90;;;;;;5058468;28;20557;-49
2021/10/28 19:20:42;;;;;;;38.23;25.60;;;9.10;99.90;;;;;;5058123;28;20466;-49
2021/10/28 19:23:16;;;;;;;37.87;27.50;;;9.00;99.90;;;;;;5049241;28;20458;-48
2021/10/28 19:25:44;;;;;;;38.40;28.30;;;9.00;99.90;;;;;;5050543;28;20495;-45
2021/10/28 19:28:13;;;;;;;34.93;26.73;;;9.00;99.90;;;;;;5038517;28;20474;-48
2021/10/28 19:30:50;;;;;;;41.90;29.00;;;9.00;1.00;;;;;;5051231;28;20462;-51
2021/10/28 19:33:20;;;;;;;35.03;26.27;;;9.00;99.90;;;;;;5058628;28;20546;-52
2021/10/28 19:35:55;;;;;;;38.60;28.00;;;9.00;99.90;;;;;;5039471;28;20459;-49
2021/10/28 19:38:38;;;;;;;41.33;28.90;;;9.00;99.90;;;;;;5044428;28;20814;-52
2021/10/28 19:41:31;;;;;;;36.20;26.40;;;9.00;99.90;;;;;;5058042;28;20770;-48
2021/10/28 19:46:46;;;;;;;36.07;26.57;;;9.00;99.90;;;;;;5057764;28;20499;-48
2021/10/28 19:49:14;;;;;;;40.77;28.13;;;8.90;99.90;;;;;;5056501;28;20472;-46
2021/10/28 19:51:52;;;;;;;40.37;27.73;;;8.90;99.90;;;;;;5057535;28;20552;-45
2021/10/28 19:54:20;;;;;;;39.77;27.67;;;8.90;99.90;;;;;;5057342;28;20760;-50
2021/10/28 19:56:50;;;;;;;35.63;25.40;;;8.90;96.40;;;;;;5057729;28;20462;-52
2021/10/28 19:59:25;;;;;;;35.73;24.40;;;9.00;1.00;;;;;;5057873;28;20466;-48
2021/10/28 20:01:57;;;;;;;38.13;26.43;;;8.90;1.00;;;;;;5057260;28;20492;-52
2021/10/28 20:04:49;;;;;;;37.43;25.30;;;8.90;99.90;;;;;;5056395;28;20534;-49
2021/10/28 20:07:26;;;;;;;37.77;25.60;;;8.90;99.90;;;;;;5058130;28;20473;-45
2021/10/28 20:13:15;;;;;;;34.93;24.47;;;8.90;99.90;;;;;;5056945;28;20445;-47
2021/10/28 20:21:18;;;;;;;33.30;24.30;;;8.90;1.00;;;;;;5057285;28;20475;-45
2021/10/28 20:23:52;;;;;;;37.90;27.40;;;8.90;99.90;;;;;;5057112;28;20441;-45
2021/10/28 20:26:21;;;;;;;33.53;24.53;;;8.90;99.90;;;;;;5057574;28;20465;-47
2021/10/28 20:28:51;;;;;;;29.40;22.60;;;8.90;82.70;;;;;;5057376;28;20444;-49
2021/10/28 20:31:24;;;;;;;35.50;24.20;;;8.90;1.00;;;;;;5036912;28;20498;-46
2021/10/28 20:34:03;;;;;;;34.80;25.17;;;8.90;1.00;;;;;;5039362;28;20781;-51
2021/10/28 20:39:22;;;;;;;36.47;24.60;;;8.90;99.90;;;;;;5049054;28;20451;-46
2021/10/28 20:41:59;;;;;;;32.93;24.40;;;8.90;99.90;;;;;;5048953;28;20506;-50
2021/10/28 20:44:26;;;;;;;36.90;25.87;;;8.90;88.10;;;;;;5053097;28;20769;-45
2021/10/28 20:46:58;;;;;;;34.33;23.80;;;8.90;1.00;;;;;;5056720;28;20462;-47
2021/10/28 20:49:32;;;;;;;38.50;26.23;;;8.90;1.00;;;;;;5049285;28;20466;-48
2021/10/28 20:52:00;;;;;;;35.93;25.10;;;8.90;1.00;;;;;;5056612;28;20470;-45
2021/10/28 20:54:34;;;;;;;34.07;26.43;;;8.90;1.00;;;;;;5056585;28;20554;-48